createdAt,value
2023-04-11T00:01:11.141Z,16.60
2023-04-11T00:03:57.134Z,15.10
2023-04-11T00:06:43.087Z,14.40
2023-04-11T00:09:28.754Z,14.40
2023-04-11T00:12:14.020Z,14.40
2023-04-11T00:14:59.407Z,14.90
2023-04-11T00:17:45.818Z,14.60
2023-04-11T00:20:31.634Z,14.80
2023-04-11T00:23:17.171Z,14.40
2023-04-11T00:26:03.488Z,14.40
2023-04-11T00:28:49.259Z,14.40
2023-04-11T00:31:34.883Z,14.30
2023-04-11T00:34:20.058Z,14.80
2023-04-11T00:37:05.808Z,14.20
2023-04-11T00:39:52.970Z,14.20
2023-04-11T00:42:39.494Z,14.20
2023-04-11T00:45:25.430Z,14.50
2023-04-11T00:48:11.406Z,14.50
2023-04-11T00:50:57.594Z,14.80
2023-04-11T00:53:45.658Z,14.00
2023-04-11T00:56:31.388Z,14.00
2023-04-11T00:59:16.809Z,14.60
2023-04-11T01:02:02.251Z,13.90
2023-04-11T01:04:47.814Z,13.80
2023-04-11T01:07:35.866Z,13.50
2023-04-11T01:10:23.318Z,14.40
2023-04-11T01:13:09.395Z,14.10
2023-04-11T01:15:54.780Z,13.30
2023-04-11T01:18:40.093Z,13.30
2023-04-11T01:21:27.144Z,14.40
2023-04-11T01:24:12.774Z,13.20
2023-04-11T01:26:58.088Z,13.20
2023-04-11T01:29:43.491Z,13.10
2023-04-11T01:32:29.003Z,13.30
2023-04-11T01:35:15.426Z,13.40
2023-04-11T01:38:01.328Z,14.30
2023-04-11T01:40:46.780Z,13.30
2023-04-11T01:43:32.339Z,14.90
2023-04-11T01:46:17.865Z,13.90
2023-04-11T01:49:03.724Z,13.60
2023-04-11T01:51:49.278Z,13.70
2023-04-11T01:54:34.551Z,14.00
2023-04-11T01:57:20.409Z,13.60
2023-04-11T02:00:06.577Z,13.50
2023-04-11T02:02:51.972Z,13.50
2023-04-11T02:05:37.501Z,13.50
2023-04-11T02:08:22.882Z,13.50
2023-04-11T02:11:08.444Z,13.40
2023-04-11T02:13:54.036Z,14.00
2023-04-11T02:16:56.073Z,13.60
2023-04-11T02:20:38.081Z,13.70
2023-04-11T02:23:24.204Z,13.70
2023-04-11T02:26:10.436Z,13.60
2023-04-11T02:28:56.371Z,13.60
2023-04-11T02:31:42.312Z,14.30
2023-04-11T02:34:27.580Z,13.60
2023-04-11T02:37:13.278Z,14.20
2023-04-11T02:39:58.938Z,13.60
2023-04-11T02:42:44.671Z,13.80
2023-04-11T02:45:30.020Z,13.40
2023-04-11T02:48:15.546Z,13.50
2023-04-11T02:51:00.986Z,14.20
2023-04-11T02:53:46.397Z,13.30
2023-04-11T02:56:33.865Z,14.30
2023-04-11T02:59:19.665Z,13.20
2023-04-11T03:02:05.320Z,14.00
2023-04-11T03:04:51.410Z,13.20
2023-04-11T03:07:38.586Z,13.10
2023-04-11T03:10:24.209Z,13.10
2023-04-11T03:13:09.862Z,14.00
2023-04-11T03:15:55.662Z,13.00
2023-04-11T03:18:41.152Z,13.10
2023-04-11T03:21:27.391Z,12.70
2023-04-11T03:24:12.878Z,12.50
2023-04-11T03:26:58.660Z,12.40
2023-04-11T03:29:43.964Z,12.20
2023-04-11T03:32:29.557Z,13.10
2023-04-11T03:35:15.347Z,12.30
2023-04-11T03:38:00.938Z,12.20
2023-04-11T03:40:46.184Z,12.10
2023-04-11T03:43:31.676Z,12.30
2023-04-11T03:46:17.304Z,12.20
2023-04-11T03:49:02.580Z,12.20
2023-04-11T03:51:47.983Z,12.20
2023-04-11T03:54:33.738Z,12.10
2023-04-11T03:57:19.221Z,12.10
2023-04-11T04:00:08.014Z,11.80
2023-04-11T04:02:53.440Z,11.70
2023-04-11T04:05:41.411Z,11.50
2023-04-11T04:08:26.865Z,11.50
2023-04-11T04:11:12.210Z,12.30
2023-04-11T04:13:57.730Z,11.60
2023-04-11T04:16:43.551Z,11.30
2023-04-11T04:19:29.286Z,11.50
2023-04-11T04:22:17.838Z,11.20
2023-04-11T04:25:03.793Z,11.40
2023-04-11T04:27:53.993Z,11.40
2023-04-11T04:30:39.584Z,11.30
2023-04-11T04:33:26.419Z,11.70
2023-04-11T04:36:13.111Z,11.30
2023-04-11T04:39:02.148Z,11.30
2023-04-11T04:41:58.345Z,11.70
2023-04-11T04:44:44.204Z,11.40
2023-04-11T04:47:34.332Z,11.40
2023-04-11T04:50:20.540Z,11.40
2023-04-11T04:53:07.165Z,11.20
2023-04-11T04:55:52.734Z,11.20
2023-04-11T04:58:38.017Z,11.20
2023-04-11T05:01:26.737Z,11.10
2023-04-11T05:04:12.764Z,10.80
2023-04-11T05:06:59.069Z,11.80
2023-04-11T05:09:44.583Z,10.70
2023-04-11T05:12:30.430Z,11.70
2023-04-11T05:15:16.304Z,11.30
2023-04-11T05:18:02.244Z,10.20
2023-04-11T05:20:47.566Z,9.90
2023-04-11T05:23:33.293Z,10.60
2023-04-11T05:26:18.840Z,9.60
2023-04-11T05:29:04.352Z,9.60
2023-04-11T05:31:49.961Z,9.70
2023-04-11T05:34:51.776Z,9.50
2023-04-11T05:37:37.292Z,10.80
2023-04-11T05:40:22.719Z,9.30
2023-04-11T05:43:08.606Z,10.10
2023-04-11T05:45:53.894Z,9.20
2023-04-11T05:48:39.854Z,9.20
2023-04-11T05:51:26.556Z,9.30
2023-04-11T05:54:13.787Z,9.70
2023-04-11T05:56:59.475Z,9.30
2023-04-11T05:59:49.894Z,9.20
2023-04-11T06:02:35.736Z,9.30
2023-04-11T06:05:22.071Z,9.40
2023-04-11T06:08:08.540Z,9.30
2023-04-11T06:10:54.229Z,10.30
2023-04-11T06:13:39.672Z,9.40
2023-04-11T06:16:25.463Z,10.30
2023-04-11T06:19:11.169Z,9.60
2023-04-11T06:21:56.886Z,9.50
2023-04-11T06:24:42.360Z,9.70
2023-04-11T06:27:27.976Z,9.90
2023-04-11T06:30:14.399Z,9.80
2023-04-11T06:33:00.139Z,10.10
2023-04-11T06:35:45.709Z,11.40
2023-04-11T06:38:31.020Z,10.50
2023-04-11T06:41:16.321Z,10.10
2023-04-11T06:44:02.054Z,10.10
2023-04-11T06:46:47.356Z,10.20
2023-04-11T06:49:33.226Z,10.40
2023-04-11T06:52:18.631Z,10.40
2023-04-11T06:55:05.084Z,10.90
2023-04-11T06:57:50.816Z,10.50
2023-04-11T07:00:36.185Z,10.50
2023-04-11T07:03:21.604Z,10.50
2023-04-11T07:06:07.608Z,10.40
2023-04-11T07:08:52.933Z,10.30
2023-04-11T07:11:38.724Z,10.60
2023-04-11T07:14:24.453Z,10.30
2023-04-11T07:17:10.152Z,10.50
2023-04-11T07:19:55.633Z,10.40
2023-04-11T07:22:44.339Z,10.30
2023-04-11T07:25:33.955Z,10.40
2023-04-11T07:28:19.331Z,10.40
2023-04-11T07:31:06.152Z,11.20
2023-04-11T07:33:51.663Z,10.60
2023-04-11T07:36:37.103Z,10.60
2023-04-11T07:39:22.263Z,10.50
2023-04-11T07:42:08.414Z,10.50
2023-04-11T07:44:54.304Z,10.60
2023-04-11T07:47:39.690Z,10.50
2023-04-11T07:50:24.987Z,10.50
2023-04-11T07:53:11.001Z,10.60
2023-04-11T07:55:56.601Z,11.10
2023-04-11T07:58:42.032Z,10.30
2023-04-11T08:01:27.505Z,10.60
2023-04-11T08:04:13.201Z,10.60
2023-04-11T08:06:58.727Z,10.60
2023-04-11T08:09:44.261Z,10.60
2023-04-11T08:12:29.936Z,10.60
2023-04-11T08:15:15.712Z,10.70
2023-04-11T08:18:01.898Z,10.70
2023-04-11T08:20:48.805Z,12.20
2023-04-11T08:23:34.122Z,10.50
2023-04-11T08:26:21.224Z,10.70
2023-04-11T08:29:11.368Z,10.80
2023-04-11T08:31:57.949Z,10.50
2023-04-11T08:34:43.482Z,10.40
2023-04-11T08:37:30.122Z,10.40
2023-04-11T08:40:16.657Z,10.30
2023-04-11T08:43:02.197Z,10.20
2023-04-11T08:45:47.976Z,10.10
2023-04-11T08:48:33.397Z,10.20
2023-04-11T08:51:29.286Z,11.00
2023-04-11T08:54:15.635Z,10.80
2023-04-11T08:57:01.657Z,10.80
2023-04-11T08:59:53.362Z,10.40
2023-04-11T09:03:01.628Z,10.60
2023-04-11T09:05:47.519Z,10.40
2023-04-11T09:08:39.413Z,11.70
2023-04-11T09:11:25.927Z,10.50
2023-04-11T09:14:11.512Z,11.20
2023-04-11T09:17:02.805Z,10.40
2023-04-11T09:19:49.305Z,10.40
2023-04-11T09:22:36.188Z,11.10
2023-04-11T09:25:23.410Z,10.40
2023-04-11T09:28:10.410Z,11.20
2023-04-11T09:30:56.542Z,10.50
2023-04-11T09:33:56.970Z,11.10
2023-04-11T09:36:44.188Z,10.40
2023-04-11T09:39:30.168Z,10.50
2023-04-11T09:42:25.447Z,10.50
2023-04-11T09:45:24.439Z,11.40
2023-04-11T09:48:10.537Z,10.60
2023-04-11T09:50:58.881Z,11.20
2023-04-11T09:53:45.161Z,11.80
2023-04-11T09:56:31.401Z,11.50
2023-04-11T09:59:16.903Z,12.20
2023-04-11T10:02:03.575Z,12.20
2023-04-11T10:04:50.231Z,11.70
2023-04-11T10:07:44.434Z,13.40
2023-04-11T10:10:30.385Z,11.50
2023-04-11T10:13:37.696Z,11.50
2023-04-11T10:16:24.253Z,11.40
2023-04-11T10:19:23.784Z,11.20
2023-04-11T10:22:09.331Z,10.90
2023-04-11T10:25:20.546Z,10.90
2023-04-11T10:28:05.738Z,11.30
2023-04-11T10:31:01.704Z,11.80
2023-04-11T10:34:14.515Z,11.70
2023-04-11T10:37:07.766Z,10.90
2023-04-11T10:40:09.013Z,11.40
2023-04-11T10:42:54.435Z,11.30
2023-04-11T10:45:40.465Z,11.40
2023-04-11T10:48:25.756Z,11.10
2023-04-11T10:51:26.102Z,11.40
2023-04-11T10:54:28.209Z,11.60
2023-04-11T10:57:14.091Z,12.00
2023-04-11T10:59:59.832Z,12.10
2023-04-11T11:02:46.492Z,12.40
2023-04-11T11:05:32.528Z,12.10
2023-04-11T11:08:31.095Z,11.90
2023-04-11T11:11:17.015Z,12.50
2023-04-11T11:14:02.724Z,12.20
2023-04-11T11:16:48.162Z,11.80
2023-04-11T11:19:34.638Z,12.40
2023-04-11T11:22:26.880Z,13.20
2023-04-11T11:25:12.781Z,12.80
2023-04-11T11:28:06.968Z,12.70
2023-04-11T11:30:57.098Z,12.90
2023-04-11T11:33:42.574Z,12.30
2023-04-11T11:36:29.084Z,12.00
2023-04-11T11:39:15.726Z,11.80
2023-04-11T11:42:01.769Z,11.60
2023-04-11T11:44:47.261Z,11.30
2023-04-11T11:47:42.247Z,11.50
2023-04-11T11:50:29.901Z,11.60
2023-04-11T11:53:16.462Z,11.90
2023-04-11T11:56:13.185Z,12.00
2023-04-11T11:58:59.051Z,12.50
2023-04-11T12:01:46.119Z,15.40
2023-04-11T12:04:32.529Z,12.80
2023-04-11T12:07:22.890Z,13.00
2023-04-11T12:10:13.560Z,13.00
2023-04-11T12:12:59.090Z,12.80
2023-04-11T12:15:48.800Z,13.20
2023-04-11T12:18:34.836Z,13.20
2023-04-11T12:21:21.712Z,12.80
2023-04-11T12:24:07.894Z,13.10
2023-04-11T12:27:06.235Z,13.10
2023-04-11T12:29:52.495Z,12.90
2023-04-11T12:32:38.631Z,13.20
2023-04-11T12:35:24.249Z,12.80
2023-04-11T12:38:10.900Z,12.60
2023-04-11T12:41:14.249Z,12.20
2023-04-11T12:44:04.089Z,12.10
2023-04-11T12:46:49.646Z,12.00
2023-04-11T12:49:35.174Z,12.00
2023-04-11T12:52:21.502Z,12.10
2023-04-11T12:55:09.507Z,12.10
2023-04-11T12:57:55.122Z,12.00
2023-04-11T13:00:40.607Z,11.90
2023-04-11T13:03:27.273Z,11.90
2023-04-11T13:06:13.230Z,12.00
2023-04-11T13:08:59.119Z,13.60
2023-04-11T13:11:44.857Z,12.70
2023-04-11T13:14:30.718Z,12.50
2023-04-11T13:17:16.309Z,13.30
2023-04-11T13:20:02.360Z,12.90
2023-04-11T13:22:48.012Z,13.20
2023-04-11T13:25:33.542Z,14.10
2023-04-11T13:28:19.431Z,13.40
2023-04-11T13:31:05.356Z,13.40
2023-04-11T13:33:50.878Z,13.50
2023-04-11T13:36:36.327Z,14.20
2023-04-11T13:39:21.507Z,13.40
2023-04-11T13:42:07.173Z,15.70
2023-04-11T13:44:52.740Z,14.80
2023-04-11T13:47:38.924Z,13.80
2023-04-11T13:50:24.643Z,14.40
2023-04-11T13:53:10.607Z,13.50
2023-04-11T13:55:56.532Z,13.50
2023-04-11T13:58:42.138Z,13.80
2023-04-11T14:01:27.542Z,14.20
2023-04-11T14:04:13.205Z,13.20
2023-04-11T14:06:59.583Z,12.80
2023-04-11T14:09:45.470Z,12.60
2023-04-11T14:12:31.150Z,12.60
2023-04-11T14:15:16.576Z,12.80
2023-04-11T14:18:02.093Z,12.50
2023-04-11T14:20:47.781Z,12.50
2023-04-11T14:23:33.775Z,12.50
2023-04-11T14:26:19.060Z,12.60
2023-04-11T14:29:04.793Z,13.10
2023-04-11T14:31:51.340Z,12.60
2023-04-11T14:34:37.292Z,12.40
2023-04-11T14:37:23.004Z,12.30
2023-04-11T14:40:11.082Z,12.20
2023-04-11T14:42:58.488Z,12.00
2023-04-11T14:45:43.748Z,12.00
2023-04-11T14:48:29.723Z,12.50
2023-04-11T14:51:15.016Z,12.90
2023-04-11T14:54:00.774Z,12.50
2023-04-11T14:56:47.643Z,12.50
2023-04-11T14:59:33.444Z,12.30
2023-04-11T15:02:19.058Z,13.80
2023-04-11T15:05:05.428Z,11.90
2023-04-11T15:07:52.330Z,11.90
2023-04-11T15:10:37.933Z,11.60
2023-04-11T15:13:23.572Z,11.40
2023-04-11T15:16:09.091Z,11.50
2023-04-11T15:18:54.411Z,11.50
2023-04-11T15:21:39.702Z,11.40
2023-04-11T15:24:25.026Z,11.50
2023-04-11T15:27:10.682Z,11.60
2023-04-11T15:29:59.605Z,11.40
2023-04-11T15:32:44.938Z,12.40
2023-04-11T15:35:30.463Z,11.60
2023-04-11T15:38:16.293Z,11.70
2023-04-11T15:41:01.604Z,12.60
2023-04-11T15:43:46.900Z,11.70
2023-04-11T15:46:32.648Z,11.80
2023-04-11T15:49:20.611Z,12.10
2023-04-11T15:52:07.041Z,11.70
2023-04-11T15:54:52.411Z,12.20
2023-04-11T15:57:37.942Z,11.90
2023-04-11T16:00:23.768Z,12.00
2023-04-11T16:03:10.729Z,12.30
2023-04-11T16:05:56.668Z,12.30
2023-04-11T16:08:42.323Z,12.80
2023-04-11T16:11:27.807Z,12.00
2023-04-11T16:14:13.285Z,11.90
2023-04-11T16:16:58.544Z,12.80
2023-04-11T16:19:43.789Z,12.00
2023-04-11T16:22:29.311Z,11.90
2023-04-11T16:25:16.337Z,12.10
2023-04-11T16:28:02.047Z,12.10
2023-04-11T16:30:47.263Z,13.80
2023-04-11T16:33:32.765Z,12.30
2023-04-11T16:36:18.333Z,12.50
2023-04-11T16:39:04.418Z,13.00
2023-04-11T16:41:50.425Z,12.30
2023-04-11T16:44:36.046Z,12.80
2023-04-11T16:47:26.176Z,12.30
2023-04-11T16:50:11.965Z,12.90
2023-04-11T16:52:57.481Z,12.40
2023-04-11T16:55:43.282Z,12.40
2023-04-11T16:58:31.145Z,12.40
2023-04-11T17:01:17.028Z,12.30
2023-04-11T17:04:02.595Z,12.20
2023-04-11T17:06:48.171Z,12.30
2023-04-11T17:09:33.530Z,12.60
2023-04-11T17:12:19.045Z,12.80
2023-04-11T17:15:07.245Z,12.20
2023-04-11T17:17:52.778Z,12.20
2023-04-11T17:20:38.004Z,12.10
2023-04-11T17:23:35.203Z,12.10
2023-04-11T17:26:27.236Z,12.00
2023-04-11T17:29:13.345Z,12.40
2023-04-11T17:31:58.718Z,11.90
2023-04-11T17:34:44.355Z,12.00
2023-04-11T17:37:29.594Z,11.90
2023-04-11T17:40:15.561Z,11.90
2023-04-11T17:43:01.315Z,11.90
2023-04-11T17:45:48.723Z,11.90
2023-04-11T17:48:35.380Z,13.20
2023-04-11T17:51:21.291Z,11.80
2023-04-11T17:54:07.061Z,11.80
2023-04-11T17:56:52.746Z,11.50
2023-04-11T17:59:37.989Z,11.80
2023-04-11T18:02:25.907Z,11.90
2023-04-11T18:05:23.878Z,12.10
2023-04-11T18:08:10.397Z,11.40
2023-04-11T18:10:56.217Z,11.50
2023-04-11T18:13:43.927Z,11.40
2023-04-11T18:16:29.462Z,11.40
2023-04-11T18:19:14.845Z,11.40
2023-04-11T18:22:00.043Z,12.90
2023-04-11T18:24:45.780Z,11.40
2023-04-11T18:27:32.332Z,11.40
2023-04-11T18:30:17.831Z,11.40
2023-04-11T18:33:04.442Z,11.30
2023-04-11T18:35:49.834Z,11.30
2023-04-11T18:38:35.259Z,11.70
2023-04-11T18:41:20.826Z,12.50
2023-04-11T18:46:54.544Z,10.80
2023-04-11T18:49:42.076Z,10.80
2023-04-11T18:52:29.162Z,10.90
2023-04-11T18:55:14.887Z,11.90
2023-04-11T18:58:01.277Z,11.30
2023-04-11T19:00:49.300Z,10.70
2023-04-11T19:03:34.834Z,11.60
2023-04-11T19:06:20.504Z,10.30
2023-04-11T19:09:06.294Z,10.20
2023-04-11T19:11:51.825Z,10.20
2023-04-11T19:14:37.533Z,11.40
2023-04-11T19:17:23.247Z,10.50
2023-04-11T19:20:16.617Z,10.60
2023-04-11T19:23:02.451Z,10.50
2023-04-11T19:25:47.796Z,10.60
2023-04-11T19:28:33.474Z,10.60
2023-04-11T19:31:19.873Z,10.50
2023-04-11T19:34:05.564Z,10.70
2023-04-11T19:36:51.951Z,10.50
2023-04-11T19:39:39.230Z,10.60
2023-04-11T19:42:25.260Z,11.40
2023-04-11T19:45:12.112Z,10.50
2023-04-11T19:47:57.904Z,10.10
2023-04-11T19:50:43.206Z,10.00
2023-04-11T19:53:28.843Z,10.50
2023-04-11T19:56:16.271Z,10.00
2023-04-11T19:59:02.608Z,10.00
2023-04-11T20:01:48.583Z,10.00
2023-04-11T20:04:34.394Z,9.90
2023-04-11T20:07:19.800Z,9.90
2023-04-11T20:10:07.859Z,10.40
2023-04-11T20:12:53.362Z,9.70
2023-04-11T20:15:39.158Z,10.40
2023-04-11T20:18:24.727Z,9.70
2023-04-11T20:21:10.452Z,9.80
2023-04-11T20:23:56.392Z,9.70
2023-04-11T20:26:42.344Z,9.80
2023-04-11T20:29:32.630Z,10.30
2023-04-11T20:32:18.754Z,9.70
2023-04-11T20:35:05.081Z,11.20
2023-04-11T20:37:50.762Z,9.20
2023-04-11T20:40:37.179Z,10.20
2023-04-11T20:43:25.307Z,10.10
2023-04-11T20:46:13.455Z,10.20
2023-04-11T20:48:59.312Z,10.20
2023-04-11T20:51:44.947Z,10.80
2023-04-11T20:54:30.476Z,10.00
2023-04-11T20:57:16.142Z,10.60
2023-04-11T21:00:07.164Z,10.10
2023-04-11T21:02:53.056Z,10.10
2023-04-11T21:05:40.014Z,10.00
2023-04-11T21:08:25.510Z,10.00
2023-04-11T21:11:10.918Z,10.10
2023-04-11T21:13:56.792Z,10.20
2023-04-11T21:16:42.635Z,9.90
2023-04-11T21:19:28.349Z,9.90
2023-04-11T21:22:13.604Z,10.00
2023-04-11T21:25:01.646Z,10.10
2023-04-11T21:27:47.815Z,11.00
2023-04-11T21:30:33.093Z,10.00
2023-04-11T21:33:18.666Z,9.90
2023-04-11T21:36:04.656Z,9.90
2023-04-11T21:38:49.945Z,9.80
2023-04-11T21:41:35.825Z,9.80
2023-04-11T21:44:21.196Z,10.70
2023-04-11T21:47:06.687Z,9.70
2023-04-11T21:49:52.028Z,9.70
2023-04-11T21:52:37.601Z,9.90
2023-04-11T21:55:23.194Z,9.70
2023-04-11T21:58:15.835Z,9.70
2023-04-11T22:01:11.970Z,9.40
2023-04-11T22:03:59.558Z,9.40
2023-04-11T22:06:48.180Z,9.50
2023-04-11T22:09:33.438Z,10.50
2023-04-11T22:12:19.296Z,9.70
2023-04-11T22:15:05.411Z,9.40
2023-04-11T22:17:54.455Z,9.30
2023-04-11T22:20:46.261Z,9.30
2023-04-11T22:23:31.541Z,9.80
2023-04-11T22:26:18.068Z,9.40
2023-04-11T22:29:06.490Z,10.00
2023-04-11T22:31:53.112Z,9.20
2023-04-11T22:34:38.678Z,9.10
2023-04-11T22:37:24.163Z,10.00
2023-04-11T22:40:11.977Z,9.00
2023-04-11T22:42:57.459Z,9.10
2023-04-11T22:45:43.416Z,9.90
2023-04-11T22:48:29.921Z,9.20
2023-04-11T22:51:16.264Z,10.20
2023-04-11T22:54:02.387Z,9.80
2023-04-11T22:56:55.125Z,9.80
2023-04-11T22:59:40.817Z,9.30
2023-04-11T23:02:31.601Z,9.10
2023-04-11T23:05:17.379Z,9.10
2023-04-11T23:08:02.864Z,9.30
2023-04-11T23:10:49.548Z,9.90
2023-04-11T23:13:34.935Z,9.30
2023-04-11T23:16:22.148Z,9.40
2023-04-11T23:19:08.750Z,9.30
2023-04-11T23:21:54.643Z,9.20
2023-04-11T23:24:40.305Z,9.10
2023-04-11T23:27:25.542Z,9.10
2023-04-11T23:30:11.955Z,10.10
2023-04-11T23:32:57.341Z,9.10
2023-04-11T23:35:45.508Z,9.10
2023-04-11T23:38:32.001Z,9.10
2023-04-11T23:41:17.602Z,9.00
2023-04-11T23:44:03.079Z,10.30
2023-04-11T23:46:48.723Z,9.70
2023-04-11T23:49:34.150Z,11.30
2023-04-11T23:52:20.988Z,9.20
2023-04-11T23:55:07.442Z,9.20
2023-04-11T23:57:52.855Z,9.20
